Time;durP1;ratioP1;P1;durP2;ratioP2;P2;SDS_P1;SDS_P2;PMS_P1;PMS_P2;Temp;Humidity;BMP_temperature;BMP_pressure;BME280_temperature;BME280_humidity;BME280_pressure;Samples;Min_cycle;Max_cycle;Signal;HPM_P1;HPM_P2
2023/07/18 00:00:25;;;;;;;6.22;2.70;;;;;;;18.94;57.97;102033.56;5050949;28;20029;-68
2023/07/18 00:02:51;;;;;;;7.50;2.92;;;;;;;18.94;57.66;102031.59;5050440;28;20090;-68
2023/07/18 00:05:17;;;;;;;5.75;2.75;;;;;;;18.92;57.69;102035.84;5069870;28;20036;-68
2023/07/18 00:07:42;;;;;;;7.32;2.95;;;;;;;18.82;58.04;102033.84;5070338;28;20025;-68
2023/07/18 00:10:09;;;;;;;5.95;2.70;;;;;;;18.86;57.99;102032.16;5065577;28;20238;-69
2023/07/18 00:12:36;;;;;;;7.78;2.97;;;;;;;18.71;57.90;102030.19;5060906;28;20036;-68
2023/07/18 00:15:03;;;;;;;5.57;2.65;;;;;;;18.62;58.62;102041.09;5059818;28;20396;-68
2023/07/18 00:17:30;;;;;;;7.50;3.30;;;;;;;18.64;58.45;102038.88;5065444;28;20017;-68
2023/07/18 00:19:55;;;;;;;9.95;3.10;;;;;;;18.64;58.57;102038.03;5082848;28;20028;-68
2023/07/18 00:22:20;;;;;;;7.43;2.92;;;;;;;18.71;58.25;102034.97;5079774;28;20036;-68
2023/07/18 00:24:46;;;;;;;5.78;2.90;;;;;;;18.67;58.46;102039.41;5058216;28;20512;-68
2023/07/18 00:27:11;;;;;;;6.90;2.67;;;;;;;18.60;58.42;102034.06;5063379;28;20139;-68
2023/07/18 00:29:36;;;;;;;5.57;3.03;;;;;;;18.56;58.49;102042.22;5073883;28;20111;-68
2023/07/18 00:32:02;;;;;;;5.65;2.80;;;;;;;18.63;58.67;102036.34;5074588;28;20032;-68
2023/07/18 00:34:27;;;;;;;5.45;2.90;;;;;;;18.49;58.65;102043.63;5076595;28;20476;-69
2023/07/18 00:36:55;;;;;;;6.60;3.33;;;;;;;18.55;58.61;102036.84;5053576;28;20435;-69
2023/07/18 00:39:20;;;;;;;5.43;2.70;;;;;;;18.60;58.75;102045.31;5054188;28;20025;-69
2023/07/18 00:41:46;;;;;;;7.40;3.30;;;;;;;18.56;59.12;102032.94;5067802;28;20430;-68
2023/07/18 00:44:11;;;;;;;8.63;3.47;;;;;;;18.59;58.94;102035.22;5063252;28;20673;-68
2023/07/18 00:46:37;;;;;;;8.88;4.05;;;;;;;18.46;59.81;102032.91;5078735;28;20036;-69
2023/07/18 00:49:03;;;;;;;6.22;3.17;;;;;;;18.63;59.05;102033.53;5088078;28;20033;-68
2023/07/18 00:51:29;;;;;;;8.32;4.28;;;;;;;18.53;59.47;102030.69;5062639;28;20029;-68
2023/07/18 00:53:54;;;;;;;7.05;4.10;;;;;;;18.56;59.63;102024.50;5065225;28;20064;-68
2023/07/18 00:56:20;;;;;;;6.90;3.53;;;;;;;18.59;59.19;102026.78;5073735;28;20059;-68
2023/07/18 00:58:45;;;;;;;7.43;4.68;;;;;;;18.51;59.72;102030.97;5073010;28;20041;-68
2023/07/18 01:01:11;;;;;;;11.60;4.50;;;;;;;18.40;60.36;102018.00;5091537;28;20028;-68
2023/07/18 01:03:38;;;;;;;5.80;3.75;;;;;;;18.54;59.82;102019.16;5078888;28;20101;-68
2023/07/18 01:06:07;;;;;;;6.97;4.68;;;;;;;18.43;60.27;102019.41;5058895;28;20033;-68
2023/07/18 01:08:33;;;;;;;8.43;4.55;;;;;;;18.56;59.83;102010.44;5063678;28;20033;-68
2023/07/18 01:10:58;;;;;;;6.82;4.10;;;;;;;18.55;59.62;102020.00;5066380;28;20047;-69
2023/07/18 01:13:23;;;;;;;7.50;4.45;;;;;;;18.50;59.68;102020.00;5073187;28;20384;-69
2023/07/18 01:15:49;;;;;;;4.65;3.53;;;;;;;18.61;59.46;102016.06;5072194;28;20520;-69
2023/07/18 01:18:14;;;;;;;6.55;4.15;;;;;;;18.54;59.35;102023.94;5072321;28;20124;-69
2023/07/18 01:20:44;;;;;;;9.30;4.80;;;;;;;18.42;59.46;102014.91;5064201;28;20027;-70
2023/07/18 01:23:10;;;;;;;8.68;4.85;;;;;;;18.43;59.58;102013.78;5053043;28;20048;-69
2023/07/18 01:25:36;;;;;;;6.80;4.45;;;;;;;18.43;59.69;102008.16;5071695;28;20389;-69
2023/07/18 01:28:03;;;;;;;9.10;4.40;;;;;;;18.40;59.57;102010.41;5070487;28;20443;-69
2023/07/18 01:30:29;;;;;;;8.23;4.28;;;;;;;18.44;59.57;102007.06;5065942;28;20072;-70
2023/07/18 01:32:56;;;;;;;7.47;4.50;;;;;;;18.33;59.17;102012.66;5079108;28;20067;-69
2023/07/18 01:35:25;;;;;;;7.20;4.15;;;;;;;18.39;59.50;102011.56;5064854;28;20053;-69
2023/07/18 01:37:52;;;;;;;9.40;4.30;;;;;;;18.33;59.35;102012.66;5063656;28;20070;-69
2023/07/18 01:40:22;;;;;;;6.53;4.13;;;;;;;18.20;59.62;102001.09;5079524;28;20062;-69
2023/07/18 01:42:52;;;;;;;6.25;3.60;;;;;;;18.38;59.31;101998.59;5070340;28;20021;-69
2023/07/18 01:45:22;;;;;;;6.35;3.40;;;;;;;18.40;58.98;101999.19;5069361;28;20131;-69
2023/07/18 01:47:49;;;;;;;6.55;3.58;;;;;;;18.36;58.89;101994.41;5069989;28;20063;-69
2023/07/18 01:50:14;;;;;;;5.00;3.40;;;;;;;18.34;58.94;101991.00;5071633;28;20758;-69
2023/07/18 01:52:39;;;;;;;5.65;3.63;;;;;;;18.34;58.81;101989.03;5053795;28;20043;-69
2023/07/18 01:55:06;;;;;;;5.32;3.53;;;;;;;18.35;58.83;101990.75;5067294;28;20043;-69
2023/07/18 01:57:42;;;;;;;7.22;4.05;;;;;;;18.31;58.64;101995.22;5072490;28;20047;-69
2023/07/18 02:00:10;;;;;;;5.78;3.20;;;;;;;18.33;58.70;101986.50;5060690;28;20147;-69
2023/07/18 02:02:39;;;;;;;8.80;3.75;;;;;;;18.28;58.89;101989.31;5071566;28;20028;-69
2023/07/18 02:05:05;;;;;;;5.60;3.80;;;;;;;18.19;58.68;101986.19;5072592;28;20028;-69
2023/07/18 02:07:31;;;;;;;5.50;3.58;;;;;;;18.21;58.83;101981.16;5066948;28;20035;-69
2023/07/18 02:09:57;;;;;;;8.45;3.92;;;;;;;18.19;58.79;101980.56;5072791;28;20412;-69
2023/07/18 02:12:23;;;;;;;5.78;3.42;;;;;;;18.25;58.83;101976.66;5068110;28;20028;-69
2023/07/18 02:14:48;;;;;;;5.20;3.30;;;;;;;18.14;58.55;101974.94;5092399;28;20494;-69
2023/07/18 02:17:14;;;;;;;6.00;3.35;;;;;;;18.05;59.04;101973.78;5067500;28;20389;-70
2023/07/18 02:19:40;;;;;;;7.63;3.50;;;;;;;18.21;58.37;101983.97;5052320;28;20125;-69
2023/07/18 02:22:05;;;;;;;7.90;3.78;;;;;;;17.99;58.56;101980.50;5060331;28;20029;-69
2023/07/18 02:24:31;;;;;;;6.50;3.63;;;;;;;18.04;58.83;101975.75;5052861;28;20469;-69
2023/07/18 02:26:57;;;;;;;6.80;3.28;;;;;;;17.92;58.79;101980.78;5053434;28;20032;-68
2023/07/18 02:29:22;;;;;;;6.18;3.35;;;;;;;17.75;59.00;101978.16;5078016;28;20119;-69
2023/07/18 02:31:49;;;;;;;9.23;3.35;;;;;;;17.69;59.06;101978.41;5082832;28;20166;-68
2023/07/18 02:34:14;;;;;;;7.03;3.88;;;;;;;17.60;59.36;101975.25;5056997;28;20025;-70
2023/07/18 02:36:39;;;;;;;4.93;3.28;;;;;;;17.61;58.74;101974.16;5059301;28;20490;-67
2023/07/18 02:39:07;;;;;;;6.35;3.60;;;;;;;17.52;58.85;101968.19;5061921;28;20755;-69
2023/07/18 02:41:33;;;;;;;11.35;3.83;;;;;;;17.37;59.09;101971.78;5057062;28;20036;-72
2023/07/18 02:43:59;;;;;;;5.47;3.30;;;;;;;17.37;58.97;101974.59;5054282;28;20107;-68
2023/07/18 02:46:24;;;;;;;3.80;2.80;;;;;;;17.40;58.85;101974.03;5056405;28;20085;-68
2023/07/18 02:48:49;;;;;;;7.55;3.50;;;;;;;17.32;59.01;101968.94;5058131;28;20033;-68
2023/07/18 02:51:15;;;;;;;5.45;3.08;;;;;;;17.25;59.17;101962.72;5070851;28;20036;-68
2023/07/18 02:53:40;;;;;;;9.57;3.10;;;;;;;17.33;58.76;101970.63;5060290;28;20036;-73
2023/07/18 02:56:06;;;;;;;6.50;3.65;;;;;;;17.25;58.89;101973.97;5052123;28;20111;-71
2023/07/18 02:58:31;;;;;;;6.85;3.70;;;;;;;17.18;59.31;101973.34;5050929;28;20436;-72
2023/07/18 03:00:57;;;;;;;7.30;3.53;;;;;;;17.19;58.89;101975.03;5060434;28;20040;-72
2023/07/18 03:03:22;;;;;;;7.28;3.92;;;;;;;17.17;58.92;101968.81;5068520;28;20567;-72
2023/07/18 03:05:52;;;;;;;7.32;3.50;;;;;;;17.08;59.17;101973.25;5054927;28;20039;-71
2023/07/18 03:08:17;;;;;;;6.85;3.40;;;;;;;17.12;58.87;101966.84;5063361;28;20112;-71
2023/07/18 03:10:43;;;;;;;5.00;3.13;;;;;;;17.08;59.03;101960.06;5070757;28;20447;-71
2023/07/18 03:13:08;;;;;;;7.75;4.03;;;;;;;17.01;58.99;101964.22;5070080;28;20024;-72
2023/07/18 03:15:34;;;;;;;5.63;2.72;;;;;;;16.96;58.86;101964.19;5068843;28;20049;-72
2023/07/18 03:18:00;;;;;;;6.22;2.80;;;;;;;17.01;58.66;101962.25;5052123;28;20040;-72
2023/07/18 03:20:27;;;;;;;5.82;3.47;;;;;;;16.95;58.74;101971.78;5051412;28;20023;-72
2023/07/18 03:22:52;;;;;;;5.20;2.90;;;;;;;16.95;58.42;101966.16;5065803;28;20028;-72
2023/07/18 03:25:20;;;;;;;4.25;2.55;;;;;;;17.00;58.01;101968.16;5091396;28;20028;-72
2023/07/18 03:27:47;;;;;;;7.40;2.97;;;;;;;16.96;57.91;101964.19;5075739;28;20048;-72
2023/07/18 03:30:13;;;;;;;4.18;2.85;;;;;;;16.96;58.00;101969.81;5064971;28;20039;-72
2023/07/18 03:32:39;;;;;;;8.00;2.83;;;;;;;16.90;57.89;101968.94;5070624;28;20064;-72
2023/07/18 03:35:09;;;;;;;5.13;3.30;;;;;;;16.88;58.35;101972.00;5084953;28;20391;-72
2023/07/18 03:37:38;;;;;;;6.20;3.00;;;;;;;16.87;58.40;101955.44;5074871;28;20044;-72
2023/07/18 03:40:06;;;;;;;6.97;3.17;;;;;;;16.90;58.37;101955.75;5058246;28;20106;-72
2023/07/18 03:42:31;;;;;;;9.95;3.20;;;;;;;16.85;58.13;101968.88;5070803;28;20032;-72
2023/07/18 03:44:57;;;;;;;5.95;3.00;;;;;;;16.88;58.59;101966.38;5071011;28;20036;-72
2023/07/18 03:47:22;;;;;;;5.20;2.80;;;;;;;16.90;58.31;101969.78;5070592;28;20025;-72
2023/07/18 03:49:49;;;;;;;4.95;2.85;;;;;;;16.82;58.35;101975.88;5070071;28;20048;-72
2023/07/18 03:52:15;;;;;;;7.55;2.95;;;;;;;16.86;58.40;101965.81;5069090;28;20033;-72
2023/07/18 03:54:40;;;;;;;6.82;2.63;;;;;;;16.83;58.42;101965.50;5060011;28;20036;-72
2023/07/18 03:57:06;;;;;;;4.38;2.90;;;;;;;16.82;58.63;101967.47;5074402;28;20039;-72
2023/07/18 03:59:31;;;;;;;5.65;3.03;;;;;;;16.81;58.22;101976.97;5074722;28;20025;-72
2023/07/18 04:01:56;;;;;;;5.32;2.88;;;;;;;16.80;58.33;101966.88;5074570;28;20060;-72
2023/07/18 04:04:22;;;;;;;5.65;2.80;;;;;;;16.73;58.68;101955.03;5065009;28;20107;-72
2023/07/18 04:06:47;;;;;;;5.35;2.55;;;;;;;16.75;58.57;101960.41;5055313;28;20111;-72
2023/07/18 04:09:12;;;;;;;6.75;2.90;;;;;;;16.72;58.57;101953.31;5063323;28;20029;-72
2023/07/18 04:11:39;;;;;;;5.65;2.97;;;;;;;16.71;58.57;101951.66;5071126;28;20386;-72
2023/07/18 04:14:04;;;;;;;5.95;2.95;;;;;;;16.73;58.69;101949.44;5071102;28;20064;-72
2023/07/18 04:16:30;;;;;;;5.53;2.80;;;;;;;16.65;58.68;101944.28;5070402;28;20823;-72
2023/07/18 04:18:55;;;;;;;7.15;3.00;;;;;;;16.61;58.82;101945.94;5074247;28;20093;-72
2023/07/18 04:21:21;;;;;;;8.82;2.90;;;;;;;16.64;58.53;101946.25;5074547;28;20033;-73
2023/07/18 04:23:47;;;;;;;6.53;3.17;;;;;;;16.62;58.73;101933.59;5074460;28;20028;-72
2023/07/18 04:26:12;;;;;;;4.78;2.92;;;;;;;16.62;58.66;101933.59;5077705;28;20040;-73
2023/07/18 04:28:38;;;;;;;5.85;2.85;;;;;;;16.60;58.83;101933.88;5094695;28;20032;-72
2023/07/18 04:31:04;;;;;;;5.15;2.80;;;;;;;16.55;58.89;101935.81;5094160;28;20467;-72
2023/07/18 04:33:35;;;;;;;5.28;2.90;;;;;;;16.59;58.79;101937.81;5091624;28;20039;-73
2023/07/18 04:36:00;;;;;;;5.55;3.05;;;;;;;16.57;58.75;101940.00;5072345;28;20016;-72
2023/07/18 04:38:26;;;;;;;7.15;3.10;;;;;;;16.58;58.88;101940.84;5073941;28;20032;-72
2023/07/18 04:40:51;;;;;;;7.55;3.28;;;;;;;16.65;58.64;101942.31;5074028;28;20082;-72
2023/07/18 04:43:17;;;;;;;5.40;2.83;;;;;;;16.60;58.48;101944.25;5093973;28;20023;-72
2023/07/18 04:45:44;;;;;;;6.53;2.70;;;;;;;16.59;58.61;101943.41;5092686;28;20043;-72
2023/07/18 04:48:13;;;;;;;5.13;2.63;;;;;;;16.68;58.36;101939.00;5072779;28;20032;-72
2023/07/18 04:50:41;;;;;;;5.43;2.90;;;;;;;16.64;58.34;101942.59;5068853;28;20016;-72
2023/07/18 04:53:06;;;;;;;4.55;3.05;;;;;;;16.59;58.48;101934.16;5064729;28;20021;-72
2023/07/18 04:55:32;;;;;;;6.75;2.67;;;;;;;16.71;58.06;101937.63;5082349;28;20020;-72
2023/07/18 04:57:57;;;;;;;7.25;2.90;;;;;;;16.63;58.30;101927.75;5052005;28;20094;-72
2023/07/18 05:00:22;;;;;;;5.25;2.70;;;;;;;16.68;58.15;101936.19;5053613;28;20029;-72
2023/07/18 05:02:48;;;;;;;6.38;2.55;;;;;;;16.68;57.97;101929.75;5072832;28;20123;-72
2023/07/18 05:05:13;;;;;;;6.38;2.80;;;;;;;16.64;58.16;101931.41;5073747;28;20043;-72
2023/07/18 05:07:41;;;;;;;4.68;2.80;;;;;;;16.73;58.04;101934.53;5072095;28;20036;-72
2023/07/18 05:10:07;;;;;;;6.03;3.05;;;;;;;16.73;57.99;101931.75;5074077;28;20479;-72
2023/07/18 05:12:32;;;;;;;6.03;2.60;;;;;;;16.71;58.15;101932.03;5072979;28;20032;-73
2023/07/18 05:14:58;;;;;;;5.60;2.53;;;;;;;16.75;58.00;101937.97;5073576;28;20028;-73
2023/07/18 05:17:23;;;;;;;4.68;2.55;;;;;;;16.72;58.23;101928.09;5089252;28;20044;-74
2023/07/18 05:19:48;;;;;;;6.88;3.15;;;;;;;16.76;58.05;101932.09;5070049;28;20115;-73
2023/07/18 05:22:14;;;;;;;3.78;2.90;;;;;;;16.83;57.77;101932.69;5074288;28;20039;-73
2023/07/18 05:24:39;;;;;;;4.63;2.28;;;;;;;16.78;58.19;101929.88;5088278;28;20045;-73
2023/07/18 05:27:05;;;;;;;5.53;2.90;;;;;;;16.78;58.15;101929.88;5093971;28;20084;-73
2023/07/18 05:29:30;;;;;;;5.95;2.92;;;;;;;16.85;57.78;101933.25;5093177;28;20387;-73
2023/07/18 05:31:55;;;;;;;6.90;2.58;;;;;;;16.80;58.35;101935.19;5093563;28;20071;-73
2023/07/18 05:34:22;;;;;;;9.43;2.92;;;;;;;16.87;58.33;101928.25;5093997;28;20073;-73
2023/07/18 05:36:47;;;;;;;4.57;2.65;;;;;;;16.85;58.45;101924.84;5068541;28;20523;-73
2023/07/18 05:39:13;;;;;;;3.45;2.38;;;;;;;16.97;58.22;101923.81;5072830;28;20032;-73
2023/07/18 05:41:38;;;;;;;6.43;2.92;;;;;;;17.00;58.33;101920.47;5057860;28;20036;-73
2023/07/18 05:44:04;;;;;;;4.13;2.60;;;;;;;17.06;58.14;101930.63;5068637;28;20472;-73
2023/07/18 05:46:29;;;;;;;6.75;2.70;;;;;;;17.14;58.15;101930.94;5093336;28;20056;-73
2023/07/18 05:48:54;;;;;;;4.55;2.50;;;;;;;17.12;58.10;101927.56;5093329;28;20024;-73
2023/07/18 05:51:20;;;;;;;5.38;2.70;;;;;;;17.26;57.84;101935.50;5073038;28;20485;-73
2023/07/18 05:53:45;;;;;;;7.28;2.90;;;;;;;17.27;57.88;101938.03;5092446;28;20039;-73
2023/07/18 05:56:10;;;;;;;6.72;2.92;;;;;;;17.34;57.56;101935.84;5072289;28;20032;-73
2023/07/18 05:58:36;;;;;;;7.40;2.67;;;;;;;17.35;57.70;101933.88;5073065;28;20437;-74
2023/07/18 06:01:01;;;;;;;8.60;2.95;;;;;;;17.50;57.27;101936.75;5066922;28;20017;-73
2023/07/18 06:03:26;;;;;;;5.90;2.90;;;;;;;17.59;57.49;101951.94;5059604;28;20123;-73
2023/07/18 06:05:55;;;;;;;7.28;2.85;;;;;;;17.62;57.28;101942.16;5061510;28;20055;-74
2023/07/18 06:08:21;;;;;;;5.75;2.67;;;;;;;17.71;57.15;101937.69;5069150;28;20074;-73
2023/07/18 06:10:47;;;;;;;8.00;2.55;;;;;;;17.71;57.28;101948.91;5064343;28;20107;-72
2023/07/18 06:13:12;;;;;;;5.78;2.58;;;;;;;17.79;57.13;101941.97;5056560;28;20116;-73
2023/07/18 06:15:38;;;;;;;5.47;2.85;;;;;;;17.79;57.03;101944.75;5051672;28;20475;-71
2023/07/18 06:18:04;;;;;;;5.55;2.78;;;;;;;17.89;56.85;101942.00;5069863;28;20446;-73
2023/07/18 06:20:30;;;;;;;6.90;2.67;;;;;;;17.96;56.82;101944.53;5067521;28;20036;-72
2023/07/18 06:22:55;;;;;;;4.25;2.20;;;;;;;17.95;56.52;101948.47;5068546;28;20036;-73
2023/07/18 06:25:20;;;;;;;6.15;2.40;;;;;;;18.03;56.41;101940.34;5065533;28;20044;-73
2023/07/18 06:27:46;;;;;;;4.93;2.45;;;;;;;18.07;56.42;101940.63;5065379;28;20094;-73
2023/07/18 06:30:12;;;;;;;7.82;2.53;;;;;;;18.22;55.98;101937.88;5067627;28;20551;-73
2023/07/18 06:32:39;;;;;;;4.63;2.22;;;;;;;18.32;55.55;101926.66;5054858;28;20219;-71
2023/07/18 06:35:05;;;;;;;4.90;2.22;;;;;;;18.36;55.32;101943.81;5060037;28;20029;-73
2023/07/18 06:37:30;;;;;;;5.95;2.13;;;;;;;18.42;55.46;101945.47;5072462;28;20044;-74
2023/07/18 06:39:55;;;;;;;5.32;2.15;;;;;;;18.49;55.27;101936.78;5070988;28;20089;-74
2023/07/18 06:42:21;;;;;;;6.00;2.22;;;;;;;18.56;55.08;101937.34;5072781;28;20056;-74
2023/07/18 06:44:47;;;;;;;5.47;2.17;;;;;;;18.62;54.46;101936.22;5068749;28;20020;-73
2023/07/18 06:47:12;;;;;;;3.83;1.88;;;;;;;18.69;55.06;101944.38;5071699;28;20032;-73
2023/07/18 06:49:37;;;;;;;5.60;2.10;;;;;;;18.79;54.65;101936.81;5070204;28;20475;-74
2023/07/18 06:52:03;;;;;;;4.05;2.00;;;;;;;18.86;54.14;101937.38;5071606;28;20043;-74
2023/07/18 06:54:28;;;;;;;2.78;1.70;;;;;;;18.92;54.15;101935.38;5070269;28;20064;-74
2023/07/18 06:56:54;;;;;;;3.38;1.63;;;;;;;18.97;53.58;101929.75;5070067;28;20028;-74
2023/07/18 06:59:19;;;;;;;3.90;1.67;;;;;;;19.07;53.59;101924.13;5067880;28;20384;-74
2023/07/18 07:01:45;;;;;;;4.53;1.80;;;;;;;19.18;53.03;101926.88;5068909;28;20499;-74
2023/07/18 07:04:10;;;;;;;3.80;1.60;;;;;;;19.21;52.69;101921.53;5070740;28;20029;-74
2023/07/18 07:06:41;;;;;;;4.68;1.20;;;;;;;19.28;52.58;101926.88;5070516;28;20096;-74
2023/07/18 07:09:07;;;;;;;4.75;1.60;;;;;;;19.35;52.19;101924.63;5071542;28;20044;-73
2023/07/18 07:11:34;;;;;;;4.25;1.23;;;;;;;19.44;52.11;101925.69;5070504;28;20392;-74
2023/07/18 07:13:59;;;;;;;5.55;1.27;;;;;;;19.49;51.39;101927.66;5070536;28;20486;-74
2023/07/18 07:16:24;;;;;;;4.57;1.45;;;;;;;19.57;51.64;101930.72;5065404;28;20044;-74
2023/07/18 07:18:50;;;;;;;3.70;1.02;;;;;;;19.67;51.46;101935.50;5069546;28;20095;-74
2023/07/18 07:21:16;;;;;;;3.58;1.35;;;;;;;19.73;51.14;101928.72;5070814;28;20020;-74
2023/07/18 07:23:41;;;;;;;4.28;1.40;;;;;;;19.82;51.25;101929.78;5070218;28;20029;-73
2023/07/18 07:26:07;;;;;;;4.07;1.40;;;;;;;19.76;50.74;101927.28;5070706;28;20033;-73
2023/07/18 07:28:33;;;;;;;4.35;1.17;;;;;;;19.85;50.86;101922.75;5070099;28;20029;-74
2023/07/18 07:31:00;;;;;;;4.38;1.20;;;;;;;19.91;50.76;101926.38;5075636;28;20034;-74
2023/07/18 07:33:26;;;;;;;2.97;1.08;;;;;;;19.97;50.44;101916.78;5086264;28;20582;-74
2023/07/18 07:35:51;;;;;;;5.18;1.70;;;;;;;19.96;49.62;101921.53;5054390;28;20028;-74
2023/07/18 07:38:17;;;;;;;4.22;1.13;;;;;;;20.00;49.66;101921.81;5050655;28;20037;-74
2023/07/18 07:40:43;;;;;;;3.28;1.30;;;;;;;20.07;49.81;101917.53;5050833;28;20025;-73
2023/07/18 07:43:08;;;;;;;4.38;1.30;;;;;;;20.03;49.07;101921.22;5050259;28;20542;-75
2023/07/18 07:45:33;;;;;;;3.45;1.10;;;;;;;20.04;48.57;101920.09;5049757;28;20031;-74
2023/07/18 07:47:59;;;;;;;3.92;1.60;;;;;;;20.13;49.15;101926.81;5052346;28;20464;-74
2023/07/18 07:50:24;;;;;;;2.33;0.95;;;;;;;20.19;48.92;101920.00;5075730;28;20529;-73
2023/07/18 07:52:49;;;;;;;4.90;1.23;;;;;;;20.21;48.91;101922.53;5050052;28;20033;-73
2023/07/18 07:55:15;;;;;;;3.50;1.00;;;;;;;20.31;48.73;101922.44;5050572;28;20033;-74
2023/07/18 07:57:41;;;;;;;2.65;1.10;;;;;;;20.43;48.75;101920.09;5050056;28;20025;-73
2023/07/18 08:00:07;;;;;;;3.80;1.30;;;;;;;20.49;48.44;101910.50;5050385;28;20040;-73
2023/07/18 08:02:33;;;;;;;2.63;1.20;;;;;;;20.54;47.82;101915.25;5049955;28;20104;-74
2023/07/18 08:04:58;;;;;;;4.65;1.02;;;;;;;20.57;47.49;101917.50;5060835;28;20040;-73
2023/07/18 08:07:23;;;;;;;2.17;0.95;;;;;;;20.70;47.40;101924.44;5089958;28;20032;-74
2023/07/18 08:09:50;;;;;;;1.92;0.98;;;;;;;20.75;46.91;101915.91;5089595;28;20039;-73
2023/07/18 08:12:15;;;;;;;1.60;0.73;;;;;;;20.83;45.68;101915.31;5090723;28;20081;-74
2023/07/18 08:14:41;;;;;;;3.38;0.80;;;;;;;20.80;44.16;101913.91;5085290;28;20036;-73
2023/07/18 08:17:06;;;;;;;1.20;0.75;;;;;;;20.91;44.23;101913.81;5090226;28;20415;-73
2023/07/18 08:19:33;;;;;;;2.60;0.80;;;;;;;20.97;43.16;101915.44;5089771;28;20031;-73
2023/07/18 08:21:59;;;;;;;1.27;0.50;;;;;;;21.07;43.28;101909.69;5080166;28;20073;-74
2023/07/18 08:24:24;;;;;;;2.20;0.73;;;;;;;21.14;43.17;101907.34;5061423;28;20036;-73
2023/07/18 08:26:50;;;;;;;1.85;0.60;;;;;;;21.10;43.00;101917.53;5070466;28;20025;-74
2023/07/18 08:29:16;;;;;;;1.63;0.60;;;;;;;21.17;42.70;101909.56;5070163;28;20086;-74
2023/07/18 08:31:42;;;;;;;2.55;0.70;;;;;;;21.20;43.20;101903.31;5089922;28;20142;-73
2023/07/18 08:34:08;;;;;;;2.40;0.70;;;;;;;21.25;42.65;101899.59;5090295;28;20218;-73
2023/07/18 08:36:35;;;;;;;1.42;0.50;;;;;;;21.31;42.02;101902.06;5089946;28;20056;-74
2023/07/18 08:39:01;;;;;;;1.75;0.43;;;;;;;21.33;42.69;101899.81;5085262;28;20027;-73
2023/07/18 08:41:27;;;;;;;2.67;0.75;;;;;;;21.43;41.61;101903.66;5051393;28;20028;-74
2023/07/18 08:43:52;;;;;;;1.67;0.60;;;;;;;21.46;40.85;101891.78;5054017;28;20079;-73
2023/07/18 08:46:18;;;;;;;2.08;0.60;;;;;;;21.51;40.81;101897.34;5079256;28;20039;-73
2023/07/18 08:48:45;;;;;;;7.18;0.43;;;;;;;21.53;40.05;101889.41;5093345;28;20031;-73
2023/07/18 08:51:12;;;;;;;2.10;0.50;;;;;;;21.61;41.00;101888.72;5093684;28;20068;-73
2023/07/18 08:53:41;;;;;;;1.20;0.40;;;;;;;21.70;41.42;101886.09;5093643;28;20099;-73
2023/07/18 08:56:10;;;;;;;3.42;0.80;;;;;;;21.78;40.43;101893.88;5071876;28;20115;-74
2023/07/18 08:58:37;;;;;;;3.03;0.75;;;;;;;21.73;40.69;101877.84;5073210;28;20051;-73
2023/07/18 09:01:03;;;;;;;3.38;0.70;;;;;;;21.85;40.56;101882.19;5073381;28;20074;-73
2023/07/18 09:03:29;;;;;;;1.48;0.55;;;;;;;21.94;40.85;101877.56;5072553;28;20025;-74
2023/07/18 09:05:54;;;;;;;2.03;0.50;;;;;;;22.00;40.20;101870.66;5073479;28;20017;-73
2023/07/18 09:08:19;;;;;;;2.65;0.75;;;;;;;22.10;39.79;101866.84;5072768;28;20031;-73
2023/07/18 09:10:45;;;;;;;4.15;0.68;;;;;;;22.17;40.14;101865.34;5071826;28;20556;-74
2023/07/18 09:13:11;;;;;;;1.60;0.50;;;;;;;22.24;40.72;101859.28;5055029;28;20552;-73
2023/07/18 09:15:37;;;;;;;2.90;0.65;;;;;;;22.29;40.57;101868.56;5052759;28;20089;-73
2023/07/18 09:18:08;;;;;;;2.08;0.65;;;;;;;22.42;40.87;101866.06;5052765;28;20025;-74
2023/07/18 09:20:34;;;;;;;3.57;0.90;;;;;;;22.45;40.26;101856.97;5052184;28;20070;-73
2023/07/18 09:23:05;;;;;;;1.42;0.70;;;;;;;22.52;40.87;101854.59;5052894;28;20276;-73
2023/07/18 09:25:31;;;;;;;1.83;0.60;;;;;;;22.49;40.89;101858.88;5052488;28;20124;-74
2023/07/18 09:27:57;;;;;;;1.63;0.80;;;;;;;22.54;40.36;101850.28;5084285;28;20164;-74
2023/07/18 09:30:34;;;;;;;1.88;0.80;;;;;;;22.43;40.75;101839.47;5071904;28;20120;-74
2023/07/18 09:33:03;;;;;;;2.45;0.60;;;;;;;22.41;41.06;101841.78;5073494;28;20023;-73
2023/07/18 09:35:28;;;;;;;1.73;0.73;;;;;;;22.39;40.39;101841.22;5072245;28;20432;-73
2023/07/18 09:37:53;;;;;;;3.40;0.70;;;;;;;22.53;40.61;101839.28;5072564;28;20025;-74
2023/07/18 09:40:19;;;;;;;1.85;0.38;;;;;;;22.64;40.56;101828.63;5073031;28;20025;-72
2023/07/18 09:42:46;;;;;;;3.75;0.70;;;;;;;22.63;39.55;101835.44;5071041;28;20376;-72
2023/07/18 09:45:12;;;;;;;2.53;0.90;;;;;;;22.63;40.21;101843.91;5061884;28;20082;-71
2023/07/18 09:47:42;;;;;;;1.45;0.57;;;;;;;22.54;40.94;101844.63;5078585;28;20028;-73
2023/07/18 09:50:12;;;;;;;1.25;0.60;;;;;;;22.30;40.55;101847.59;5092975;28;20071;-74
2023/07/18 09:52:46;;;;;;;4.00;0.80;;;;;;;22.23;41.10;101841.47;5091114;28;20090;-73
2023/07/18 09:55:14;;;;;;;6.68;1.00;;;;;;;22.20;41.55;101844.09;5087861;28;20020;-73
2023/07/18 09:57:43;;;;;;;1.35;0.63;;;;;;;22.27;41.25;101845.38;5090047;28;20032;-74
2023/07/18 10:00:11;;;;;;;2.50;0.90;;;;;;;22.32;40.88;101843.59;5092056;28;20078;-73
2023/07/18 10:02:38;;;;;;;3.25;0.80;;;;;;;22.48;41.23;101830.91;5092350;28;20020;-73
2023/07/18 10:05:05;;;;;;;1.75;0.60;;;;;;;22.66;41.00;101829.97;5055135;28;20040;-74
2023/07/18 10:07:33;;;;;;;1.23;0.80;;;;;;;22.59;39.52;101832.38;5051441;28;20376;-73
2023/07/18 10:10:00;;;;;;;2.45;0.80;;;;;;;22.66;40.33;101831.97;5052435;28;20546;-73
2023/07/18 10:12:26;;;;;;;4.38;0.80;;;;;;;22.76;40.50;101823.31;5054676;28;20028;-73
2023/07/18 10:14:59;;;;;;;1.98;0.60;;;;;;;22.69;40.04;101818.06;5071867;28;20047;-74
2023/07/18 10:17:31;;;;;;;3.50;0.73;;;;;;;22.67;39.98;101808.19;5071173;28;20039;-74
2023/07/18 10:19:56;;;;;;;1.10;0.70;;;;;;;22.68;39.79;101799.41;5071544;28;20025;-74
2023/07/18 10:22:25;;;;;;;1.80;0.80;;;;;;;22.72;40.11;101791.97;5065826;28;20078;-74
2023/07/18 10:24:51;;;;;;;4.05;0.90;;;;;;;22.79;40.54;101783.91;5068781;28;20559;-74
2023/07/18 10:27:16;;;;;;;3.08;0.70;;;;;;;22.79;40.64;101781.06;5072386;28;20025;-73
2023/07/18 10:30:03;;;;;;;3.42;0.65;;;;;;;22.76;41.47;101781.69;5079326;28;20086;-71
2023/07/18 10:32:31;;;;;;;1.90;0.77;;;;;;;22.75;39.90;101785.69;5068680;28;20025;-71
2023/07/18 10:34:57;;;;;;;2.35;0.55;;;;;;;22.76;40.12;101784.53;5070087;28;20193;-74
2023/07/18 10:37:26;;;;;;;1.60;0.70;;;;;;;22.81;40.54;101779.91;5070573;28;20092;-75
2023/07/18 10:39:54;;;;;;;2.75;0.90;;;;;;;22.87;40.67;101778.63;5063471;28;20392;-76
2023/07/18 10:42:30;;;;;;;4.20;0.75;;;;;;;22.97;40.49;101778.47;5062288;28;20032;-74
2023/07/18 10:45:00;;;;;;;1.45;0.65;;;;;;;22.95;39.66;101780.78;5066255;28;20384;-72
2023/07/18 10:47:26;;;;;;;2.35;0.60;;;;;;;22.99;40.76;101777.03;5072210;28;20035;-72
2023/07/18 10:49:53;;;;;;;3.22;0.80;;;;;;;23.00;40.54;101772.19;5069211;28;20024;-68
2023/07/18 10:52:20;;;;;;;2.00;0.73;;;;;;;22.99;39.94;101765.69;5067516;28;20098;-69
2023/07/18 10:54:50;;;;;;;3.83;0.77;;;;;;;23.00;40.47;101767.38;5054911;28;20031;-71
2023/07/18 10:57:16;;;;;;;2.25;0.77;;;;;;;22.99;40.08;101770.50;5061432;28;20021;-70
2023/07/18 10:59:43;;;;;;;2.45;0.70;;;;;;;22.92;40.12;101768.09;5058088;28;20032;-70
2023/07/18 11:02:09;;;;;;;3.35;0.77;;;;;;;22.95;39.83;101766.59;5054853;28;20036;-70
2023/07/18 11:04:34;;;;;;;3.67;1.08;;;;;;;22.94;40.10;101762.94;5062201;28;20391;-68
2023/07/18 11:06:59;;;;;;;10.13;1.55;;;;;;;22.97;40.35;101758.66;5064649;28;20032;-67
2023/07/18 11:09:25;;;;;;;4.47;1.08;;;;;;;23.06;40.37;101759.59;5066181;28;20020;-70
2023/07/18 11:11:51;;;;;;;2.60;1.15;;;;;;;23.05;39.85;101769.25;5063537;28;20039;-68
2023/07/18 11:14:18;;;;;;;3.17;0.90;;;;;;;23.02;40.46;101765.03;5068132;28;20032;-69
2023/07/18 11:16:43;;;;;;;2.00;0.65;;;;;;;23.12;40.75;101764.00;5072982;28;20063;-70
2023/07/18 11:19:09;;;;;;;2.22;1.20;;;;;;;23.11;39.61;101759.50;5067296;28;20477;-69